Time;durP1;ratioP1;P1;durP2;ratioP2;P2;SDS_P1;SDS_P2;PMS_P1;PMS_P2;Temp;Humidity;BMP_temperature;BMP_pressure;BME280_temperature;BME280_humidity;BME280_pressure;Samples;Min_cycle;Max_cycle;Signal;HPM_P1;HPM_P2
2022/11/08 02:35:30;;;;;;;30.07;27.13;;;7.20;99.90;;;;;;5481857;23;20269;-74
2022/11/08 02:37:57;;;;;;;27.53;25.23;;;7.20;99.90;;;;;;4970643;28;20991;-74
2022/11/08 02:40:23;;;;;;;29.83;27.43;;;7.10;99.90;;;;;;4972041;28;20474;-74
2022/11/08 02:42:50;;;;;;;28.47;26.33;;;7.10;99.90;;;;;;4972142;28;20455;-75
2022/11/08 02:45:17;;;;;;;27.17;25.17;;;7.10;99.90;;;;;;4971786;28;20461;-73
2022/11/08 02:47:44;;;;;;;26.90;24.90;;;7.00;99.90;;;;;;4972242;28;20444;-75
2022/11/08 02:50:11;;;;;;;27.50;25.43;;;7.00;99.90;;;;;;4972092;28;20451;-74
2022/11/08 02:52:39;;;;;;;29.20;26.67;;;7.00;99.90;;;;;;4971818;28;20452;-74
2022/11/08 02:55:06;;;;;;;27.13;24.70;;;7.00;99.90;;;;;;4971836;28;20452;-73
2022/11/08 02:57:33;;;;;;;27.10;24.83;;;7.00;99.90;;;;;;4971700;28;20495;-73
2022/11/08 03:00:00;;;;;;;27.73;25.50;;;7.00;99.90;;;;;;4971604;28;20811;-73
2022/11/08 03:02:26;;;;;;;28.90;26.20;;;7.00;99.90;;;;;;4971895;28;20462;-73
2022/11/08 03:04:53;;;;;;;28.60;26.50;;;6.90;99.90;;;;;;4971453;28;20491;-74
2022/11/08 03:07:20;;;;;;;30.20;27.20;;;6.90;99.90;;;;;;4971341;28;20458;-73
2022/11/08 03:09:48;;;;;;;28.90;26.63;;;6.90;99.90;;;;;;4971485;28;20458;-73
2022/11/08 03:12:15;;;;;;;30.27;27.77;;;6.90;99.90;;;;;;4971503;28;20450;-73
2022/11/08 03:14:41;;;;;;;29.83;27.37;;;6.80;99.90;;;;;;4971578;28;20451;-73
2022/11/08 03:17:08;;;;;;;32.33;29.27;;;6.90;99.90;;;;;;4971175;28;20953;-73
2022/11/08 03:19:35;;;;;;;28.77;26.43;;;6.90;99.90;;;;;;4971013;28;20456;-74
2022/11/08 03:22:02;;;;;;;28.20;26.10;;;6.80;99.90;;;;;;4971286;28;20459;-75
2022/11/08 03:24:28;;;;;;;28.27;26.13;;;6.80;99.90;;;;;;4971699;28;20477;-75
2022/11/08 03:26:56;;;;;;;29.93;27.60;;;6.80;99.90;;;;;;4971363;28;20469;-74
2022/11/08 03:29:23;;;;;;;29.03;26.83;;;6.80;99.90;;;;;;4971515;28;20462;-74
2022/11/08 03:31:50;;;;;;;28.77;26.37;;;6.70;99.90;;;;;;4971592;28;20466;-74
2022/11/08 03:34:16;;;;;;;29.77;27.40;;;6.80;99.90;;;;;;4970971;28;20471;-74
2022/11/08 03:36:43;;;;;;;28.67;26.30;;;6.70;99.90;;;;;;4971437;28;20739;-76
2022/11/08 03:39:10;;;;;;;28.07;25.77;;;6.70;99.90;;;;;;4971251;28;20487;-75
2022/11/08 03:41:38;;;;;;;30.60;27.93;;;6.70;99.90;;;;;;4971082;28;20512;-76
2022/11/08 03:44:06;;;;;;;30.70;28.33;;;6.70;99.90;;;;;;4970996;28;20489;-76
2022/11/08 03:46:33;;;;;;;29.67;27.57;;;6.60;99.90;;;;;;4970739;28;20558;-76
2022/11/08 03:48:59;;;;;;;28.63;26.67;;;6.60;99.90;;;;;;4970842;28;20444;-76
2022/11/08 03:51:26;;;;;;;28.00;25.60;;;6.60;99.90;;;;;;4970972;28;20444;-74
2022/11/08 03:53:53;;;;;;;28.33;26.10;;;6.50;99.90;;;;;;4970282;28;20447;-74
2022/11/08 03:56:19;;;;;;;30.00;27.33;;;6.50;99.90;;;;;;4970464;28;20478;-74
2022/11/08 03:58:46;;;;;;;30.00;27.30;;;6.50;99.90;;;;;;4970517;28;20495;-74
2022/11/08 04:01:14;;;;;;;29.53;27.27;;;6.40;99.90;;;;;;4970936;28;20458;-74
2022/11/08 04:03:41;;;;;;;30.50;28.07;;;6.50;99.90;;;;;;4970652;28;20451;-75
2022/11/08 04:06:08;;;;;;;30.67;28.10;;;6.50;99.90;;;;;;4970298;28;20451;-75
2022/11/08 04:08:35;;;;;;;29.30;26.63;;;6.50;99.90;;;;;;4970227;28;20824;-75
2022/11/08 04:15:13;;;;;;;29.50;27.13;;;6.50;99.90;;;;;;4970207;28;20924;-75
2022/11/08 04:16:34;;;;;;;30.10;27.63;;;6.40;99.90;;;;;;4969800;28;20437;-75
2022/11/08 04:21:48;;;;;;;29.13;26.63;;;6.30;99.90;;;;;;4970169;28;20428;-74
2022/11/08 04:24:14;;;;;;;29.17;26.80;;;6.30;99.90;;;;;;4970775;28;20451;-76
2022/11/08 04:26:41;;;;;;;29.07;26.53;;;6.20;99.90;;;;;;4970279;28;20914;-74
2022/11/08 04:29:09;;;;;;;28.33;26.03;;;6.20;99.90;;;;;;4969281;28;20832;-71
2022/11/08 04:31:37;;;;;;;29.17;26.70;;;6.20;99.90;;;;;;4969284;28;20451;-73
2022/11/08 04:34:04;;;;;;;29.17;27.07;;;6.30;99.90;;;;;;4969366;28;20478;-76
2022/11/08 04:36:31;;;;;;;31.27;28.50;;;6.20;99.90;;;;;;4969064;28;20505;-75
2022/11/08 04:38:57;;;;;;;32.33;29.23;;;6.20;99.90;;;;;;4969901;28;20478;-77
2022/11/08 04:41:25;;;;;;;32.03;29.40;;;6.20;99.90;;;;;;4969596;28;20922;-76
2022/11/08 04:43:55;;;;;;;31.00;28.30;;;6.30;99.90;;;;;;4969635;28;20455;-76
2022/11/08 04:46:23;;;;;;;31.40;28.60;;;6.30;99.90;;;;;;4969093;28;20447;-76
2022/11/08 04:48:53;;;;;;;31.17;28.47;;;6.30;99.90;;;;;;4969595;28;20447;-76
2022/11/08 04:51:21;;;;;;;31.37;28.67;;;6.30;99.90;;;;;;4969970;28;20465;-76
2022/11/08 04:53:49;;;;;;;31.50;28.17;;;6.30;99.90;;;;;;4969559;28;20967;-76
2022/11/08 04:56:18;;;;;;;30.87;28.03;;;6.30;99.90;;;;;;4969870;28;20455;-76
2022/11/08 04:58:47;;;;;;;31.67;28.33;;;6.30;99.90;;;;;;4969628;28;20498;-76
2022/11/08 05:01:16;;;;;;;30.87;28.33;;;6.30;99.90;;;;;;4969919;28;20808;-76
2022/11/08 05:03:44;;;;;;;31.70;28.60;;;6.30;99.90;;;;;;4969922;28;20468;-76
2022/11/08 05:06:14;;;;;;;31.57;28.67;;;6.30;99.90;;;;;;4969631;28;20570;-76
2022/11/08 05:08:41;;;;;;;30.27;27.33;;;6.30;99.90;;;;;;4969821;28;20452;-75
2022/11/08 05:11:10;;;;;;;30.83;28.30;;;6.30;99.90;;;;;;4969727;28;20816;-76
2022/11/08 05:13:37;;;;;;;30.50;27.93;;;6.20;99.90;;;;;;4969562;28;20819;-76
2022/11/08 05:16:06;;;;;;;30.40;27.83;;;6.20;99.90;;;;;;4969568;28;20955;-75
2022/11/08 05:18:33;;;;;;;30.53;27.50;;;6.30;99.90;;;;;;4969500;28;20847;-76
2022/11/08 05:23:49;;;;;;;29.23;26.93;;;6.30;99.90;;;;;;4969625;28;20510;-76
2022/11/08 05:26:17;;;;;;;28.97;26.67;;;6.40;99.90;;;;;;4969635;28;20455;-76
2022/11/08 05:28:44;;;;;;;27.23;25.33;;;6.40;99.90;;;;;;4969612;28;20478;-76
2022/11/08 05:31:11;;;;;;;26.93;24.73;;;6.40;99.90;;;;;;4969725;28;20447;-76
2022/11/08 05:33:38;;;;;;;28.27;26.23;;;6.40;99.90;;;;;;4969318;28;20832;-75
2022/11/08 05:36:07;;;;;;;28.63;26.10;;;6.40;99.90;;;;;;4969414;28;20803;-75
2022/11/08 05:38:35;;;;;;;26.77;24.87;;;6.40;99.90;;;;;;4969369;28;21028;-75
2022/11/08 05:41:04;;;;;;;25.40;23.80;;;6.30;99.90;;;;;;4969393;28;20923;-75
2022/11/08 05:43:30;;;;;;;27.97;25.53;;;6.30;99.90;;;;;;4968638;28;20448;-75
2022/11/08 05:45:57;;;;;;;27.50;25.33;;;6.30;99.90;;;;;;4968899;28;20517;-75
2022/11/08 05:48:24;;;;;;;26.50;24.80;;;6.30;99.90;;;;;;4970409;28;20933;-76
2022/11/08 05:50:51;;;;;;;30.53;27.53;;;6.20;99.90;;;;;;4972936;28;20446;-76
2022/11/08 05:53:18;;;;;;;27.03;24.83;;;6.20;99.90;;;;;;4972593;28;20446;-75
2022/11/08 05:55:45;;;;;;;28.93;26.30;;;6.20;99.90;;;;;;4972810;28;20453;-76
2022/11/08 05:58:13;;;;;;;29.03;26.83;;;6.10;99.90;;;;;;4972783;28;20495;-76
2022/11/08 06:00:39;;;;;;;30.23;27.47;;;6.20;99.90;;;;;;4972630;28;20445;-76
2022/11/08 06:03:07;;;;;;;29.03;26.40;;;6.10;99.90;;;;;;4972261;28;20455;-75
2022/11/08 06:05:34;;;;;;;30.60;27.53;;;6.10;99.90;;;;;;4972389;28;20451;-76
2022/11/08 06:08:01;;;;;;;29.43;27.00;;;6.10;99.90;;;;;;4972421;28;20973;-75
2022/11/08 06:10:28;;;;;;;28.47;25.80;;;6.10;99.90;;;;;;4972794;28;20499;-75
2022/11/08 06:12:59;;;;;;;29.77;27.27;;;6.10;99.90;;;;;;4972359;28;20464;-75
2022/11/08 06:15:27;;;;;;;29.97;27.40;;;6.10;99.90;;;;;;4972404;28;20770;-76
2022/11/08 06:17:54;;;;;;;31.30;28.57;;;6.10;99.90;;;;;;4972264;28;20458;-76
2022/11/08 06:20:21;;;;;;;35.67;27.80;;;6.10;99.90;;;;;;4972228;28;20632;-75
2022/11/08 06:22:48;;;;;;;31.60;28.63;;;6.10;99.90;;;;;;4972118;28;20456;-75
2022/11/08 06:25:14;;;;;;;29.50;27.30;;;6.10;99.90;;;;;;4972454;28;20932;-75
2022/11/08 06:27:41;;;;;;;33.03;30.20;;;6.10;99.90;;;;;;4972167;28;20459;-76
2022/11/08 06:30:09;;;;;;;32.10;29.50;;;6.10;99.90;;;;;;4972117;28;20455;-76
2022/11/08 06:32:37;;;;;;;29.30;27.10;;;6.10;99.90;;;;;;4972057;28;20784;-76
2022/11/08 06:35:04;;;;;;;31.80;28.60;;;6.10;99.90;;;;;;4971678;28;20684;-76
2022/11/08 06:37:31;;;;;;;30.03;27.20;;;6.10;99.90;;;;;;4971858;28;20451;-76
2022/11/08 06:39:58;;;;;;;29.07;26.63;;;6.10;99.90;;;;;;4972054;28;20980;-76
2022/11/08 06:42:25;;;;;;;29.00;26.60;;;6.10;99.90;;;;;;4971877;28;20514;-75
2022/11/08 06:44:52;;;;;;;30.43;28.13;;;6.10;99.90;;;;;;4971583;28;20456;-74
2022/11/08 06:47:18;;;;;;;27.20;25.30;;;6.10;99.90;;;;;;4971693;28;21144;-75
2022/11/08 06:49:47;;;;;;;29.27;26.93;;;6.10;99.90;;;;;;4971742;28;20451;-75
2022/11/08 06:52:13;;;;;;;29.40;27.10;;;6.10;99.90;;;;;;4971657;28;20517;-74
2022/11/08 06:54:40;;;;;;;32.37;29.27;;;6.10;99.90;;;;;;4972046;28;20454;-75
2022/11/08 06:57:07;;;;;;;29.77;26.60;;;6.30;99.90;;;;;;4971526;28;20451;-75
2022/11/08 06:59:34;;;;;;;26.97;25.17;;;6.50;99.90;;;;;;4970924;28;20836;-75
2022/11/08 07:02:00;;;;;;;27.37;24.97;;;6.80;99.90;;;;;;4971225;28;20462;-74
2022/11/08 07:04:27;;;;;;;29.30;26.47;;;6.90;99.90;;;;;;4971330;28;20463;-75
2022/11/08 07:06:55;;;;;;;28.70;26.47;;;6.90;99.90;;;;;;4974357;28;20471;-76
2022/11/08 07:09:22;;;;;;;30.10;27.70;;;6.90;99.90;;;;;;4976450;28;20946;-76
2022/11/08 07:11:49;;;;;;;25.47;23.47;;;6.80;99.90;;;;;;4972864;28;20772;-75
2022/11/08 07:14:15;;;;;;;28.53;25.73;;;6.70;99.90;;;;;;4972933;28;20448;-76
2022/11/08 07:16:42;;;;;;;28.30;25.50;;;6.70;99.90;;;;;;4973833;28;20455;-75
2022/11/08 07:19:09;;;;;;;26.77;24.40;;;6.80;99.90;;;;;;4971916;28;20485;-76
2022/11/08 07:21:36;;;;;;;26.47;23.90;;;6.90;99.90;;;;;;4971629;28;20970;-75
2022/11/08 07:24:04;;;;;;;31.40;22.93;;;7.00;99.90;;;;;;4971337;28;20452;-76
2022/11/08 07:26:31;;;;;;;25.63;22.93;;;7.00;99.90;;;;;;4971742;28;20807;-76
2022/11/08 07:28:57;;;;;;;25.17;22.73;;;7.20;99.90;;;;;;4971475;28;20443;-76
2022/11/08 07:31:24;;;;;;;22.97;21.10;;;7.30;99.90;;;;;;4971554;28;20447;-76
2022/11/08 07:33:51;;;;;;;22.73;20.90;;;7.40;99.90;;;;;;4970371;28;21288;-78
2022/11/08 07:36:18;;;;;;;22.73;21.03;;;7.40;99.90;;;;;;4971403;28;20476;-77
2022/11/08 07:38:45;;;;;;;24.17;22.23;;;7.40;99.90;;;;;;4977855;28;20848;-82
2022/11/08 07:41:13;;;;;;;23.17;21.33;;;7.50;99.90;;;;;;4970753;28;20455;-84
2022/11/08 07:43:39;;;;;;;24.03;22.07;;;7.70;99.90;;;;;;4971031;28;20456;-84
2022/11/08 07:46:06;;;;;;;25.13;23.37;;;8.00;99.90;;;;;;4971931;28;20455;-83
2022/11/08 07:48:34;;;;;;;22.60;20.30;;;8.40;99.90;;;;;;4971097;28;20479;-84
2022/11/08 07:51:01;;;;;;;22.63;20.53;;;8.40;99.90;;;;;;4970630;28;20455;-83
2022/11/08 07:53:28;;;;;;;22.53;20.87;;;8.40;99.90;;;;;;4970703;28;20471;-82
2022/11/08 07:55:55;;;;;;;23.30;21.40;;;8.30;99.90;;;;;;4970676;28;20814;-81
2022/11/08 07:58:23;;;;;;;23.63;21.63;;;8.20;99.90;;;;;;4970861;28;20452;-81
2022/11/08 08:00:49;;;;;;;24.30;22.17;;;8.10;99.90;;;;;;4971047;28;20474;-81
2022/11/08 08:03:16;;;;;;;21.93;20.27;;;8.30;99.90;;;;;;4970814;28;20448;-80
2022/11/08 08:05:45;;;;;;;20.77;19.20;;;8.70;99.90;;;;;;4971194;28;20932;-85
2022/11/08 08:08:13;;;;;;;23.77;21.53;;;8.80;99.90;;;;;;4970954;28;20914;-81
2022/11/08 08:10:41;;;;;;;22.10;20.20;;;8.90;99.90;;;;;;4971712;28;20949;-86
2022/11/08 08:13:08;;;;;;;19.23;17.83;;;9.00;99.90;;;;;;4970300;28;20456;-78
2022/11/08 08:15:36;;;;;;;18.00;16.80;;;9.00;99.90;;;;;;4970370;28;20474;-79
2022/11/08 08:18:04;;;;;;;17.50;16.50;;;9.30;99.90;;;;;;4968405;28;20469;-79
2022/11/08 08:20:32;;;;;;;15.40;14.47;;;9.80;99.90;;;;;;4969792;28;20487;-78
2022/11/08 08:22:59;;;;;;;14.33;13.63;;;10.30;99.90;;;;;;4970139;28;20458;-79
2022/11/08 08:25:28;;;;;;;16.27;15.27;;;10.40;99.90;;;;;;4969718;28;20448;-77
2022/11/08 08:27:56;;;;;;;15.10;14.30;;;10.20;99.90;;;;;;4969417;28;20550;-77
2022/11/08 08:30:24;;;;;;;16.13;14.83;;;10.50;99.90;;;;;;4969677;28;20527;-76
2022/11/08 08:33:00;;;;;;;16.93;15.27;;;10.80;99.90;;;;;;4969198;28;20645;-78
2022/11/08 08:35:27;;;;;;;19.03;17.20;;;10.90;99.90;;;;;;4969634;28;20486;-76
2022/11/08 08:37:58;;;;;;;16.63;15.27;;;11.10;99.90;;;;;;4969542;28;20447;-76
2022/11/08 08:40:24;;;;;;;16.27;15.17;;;11.30;99.90;;;;;;4969565;28;20483;-76
2022/11/08 08:42:51;;;;;;;17.60;16.30;;;11.50;99.90;;;;;;4969356;28;20530;-75
2022/11/08 08:45:18;;;;;;;16.67;15.50;;;11.80;99.90;;;;;;4969287;28;20451;-76
2022/11/08 08:47:44;;;;;;;15.90;14.70;;;12.40;99.90;;;;;;4969793;28;20458;-75
2022/11/08 08:50:13;;;;;;;15.20;14.33;;;12.60;99.90;;;;;;4970056;28;20447;-76
2022/11/08 08:52:39;;;;;;;14.57;13.77;;;13.10;99.90;;;;;;4970098;28;20452;-76
2022/11/08 08:55:07;;;;;;;15.17;14.13;;;13.60;99.90;;;;;;4969168;28;20456;-77
2022/11/08 08:57:34;;;;;;;13.30;12.40;;;13.50;99.90;;;;;;4969071;28;20448;-77
2022/11/08 09:00:00;;;;;;;23.10;17.10;;;13.50;99.90;;;;;;4968978;28;20514;-76
2022/11/08 09:02:27;;;;;;;20.00;18.20;;;13.20;99.90;;;;;;4969938;28;20456;-76
2022/11/08 09:04:54;;;;;;;19.20;17.47;;;12.90;99.90;;;;;;4969562;28;20448;-76
2022/11/08 09:07:22;;;;;;;17.33;15.70;;;12.90;99.90;;;;;;4969161;28;20451;-76
2022/11/08 09:09:48;;;;;;;20.33;18.67;;;12.80;99.90;;;;;;4969189;28;20471;-76
2022/11/08 09:12:15;;;;;;;18.43;16.60;;;12.80;99.90;;;;;;4969166;28;20867;-76
2022/11/08 09:14:42;;;;;;;20.23;18.70;;;12.80;99.90;;;;;;4969551;28;20456;-76
2022/11/08 09:17:09;;;;;;;20.73;18.53;;;13.10;99.90;;;;;;4969597;28;20451;-76
2022/11/08 09:19:35;;;;;;;21.67;19.63;;;13.10;99.90;;;;;;4969049;28;20674;-76
2022/11/08 09:22:02;;;;;;;21.60;19.93;;;13.00;99.90;;;;;;4969879;28;20459;-77
2022/11/08 09:24:30;;;;;;;17.10;15.90;;;13.10;99.90;;;;;;4973438;28;20933;-76
2022/11/08 09:26:57;;;;;;;19.23;17.30;;;13.80;99.90;;;;;;4972944;28;20455;-75
2022/11/08 09:29:24;;;;;;;19.17;17.67;;;14.40;99.90;;;;;;4972483;28;20459;-76
2022/11/08 09:31:51;;;;;;;15.77;14.47;;;15.20;99.90;;;;;;4972530;28;20448;-78
2022/11/08 09:34:18;;;;;;;17.90;16.13;;;15.60;99.90;;;;;;4972332;28;20497;-76
2022/11/08 09:36:44;;;;;;;18.37;16.43;;;15.50;99.90;;;;;;4972624;28;20965;-77
2022/11/08 09:39:11;;;;;;;17.00;15.67;;;15.50;99.90;;;;;;4972710;28;20483;-76
2022/11/08 09:42:01;;;;;;;16.57;15.57;;;15.70;99.90;;;;;;4972535;28;20523;-75
2022/11/08 09:45:00;;;;;;;16.90;15.60;;;15.50;99.90;;;;;;4973726;28;20605;-76
2022/11/08 09:47:31;;;;;;;16.90;15.33;;;15.20;99.90;;;;;;4972858;28;20451;-76
2022/11/08 09:50:05;;;;;;;17.87;16.70;;;15.30;99.90;;;;;;4972807;28;20446;-77
2022/11/08 09:52:35;;;;;;;15.37;14.27;;;16.10;99.90;;;;;;4980384;28;20447;-78
2022/11/08 09:55:15;;;;;;;17.00;15.80;;;16.80;99.90;;;;;;4973121;28;20776;-76
2022/11/08 09:57:54;;;;;;;17.50;16.00;;;16.90;99.90;;;;;;4972554;28;20462;-76
2022/11/08 10:00:21;;;;;;;16.27;15.37;;;16.70;99.90;;;;;;4972016;28;21055;-75
2022/11/08 10:02:48;;;;;;;16.90;15.50;;;17.30;99.90;;;;;;4972191;28;20451;-76
2022/11/08 10:05:19;;;;;;;18.13;16.60;;;17.30;99.90;;;;;;4972350;28;20452;-77
2022/11/08 10:07:53;;;;;;;17.97;16.70;;;17.50;99.90;;;;;;4972131;28;20444;-76
2022/11/08 10:10:37;;;;;;;15.53;14.50;;;17.40;99.70;;;;;;4972403;28;20455;-76
2022/11/08 10:13:15;;;;;;;16.27;15.00;;;16.90;99.90;;;;;;4972160;28;20456;-76
2022/11/08 10:15:50;;;;;;;16.07;14.77;;;16.30;99.90;;;;;;4972505;28;20452;-76
2022/11/08 10:18:43;;;;;;;15.03;14.13;;;15.80;99.90;;;;;;4971747;28;20447;-75
2022/11/08 10:21:19;;;;;;;14.73;13.73;;;15.60;99.90;;;;;;4971940;28;20488;-75
2022/11/08 10:23:51;;;;;;;14.17;12.87;;;15.30;99.90;;;;;;4971878;28;20898;-75
2022/11/08 10:26:19;;;;;;;16.17;14.90;;;15.20;99.90;;;;;;4971817;28;20456;-75
2022/11/08 10:28:51;;;;;;;16.50;15.20;;;15.20;99.90;;;;;;4971637;28;20455;-75
2022/11/08 10:31:19;;;;;;;16.53;14.83;;;15.30;99.90;;;;;;4971755;28;20448;-75
2022/11/08 10:33:50;;;;;;;15.00;14.00;;;15.30;99.90;;;;;;4970688;28;21017;-74
2022/11/08 10:36:24;;;;;;;14.53;13.63;;;15.40;99.90;;;;;;4971669;28;20543;-76
2022/11/08 10:38:59;;;;;;;14.83;13.80;;;15.30;99.90;;;;;;4971570;28;20459;-74
2022/11/08 10:41:33;;;;;;;14.67;13.60;;;15.30;99.90;;;;;;4971918;28;20483;-77
2022/11/08 10:44:05;;;;;;;16.20;14.17;;;15.40;99.90;;;;;;4971341;28;20447;-76
2022/11/08 10:46:43;;;;;;;14.67;13.47;;;15.40;99.90;;;;;;4971666;28;20455;-75
2022/11/08 10:49:18;;;;;;;15.10;13.93;;;15.50;99.90;;;;;;4971763;28;20462;-76
2022/11/08 10:51:46;;;;;;;14.57;13.57;;;15.40;99.90;;;;;;4973120;28;20542;-76
2022/11/08 10:54:42;;;;;;;15.07;14.00;;;15.40;99.90;;;;;;4973470;28;20451;-75
2022/11/08 10:57:11;;;;;;;16.10;14.70;;;15.30;99.90;;;;;;4970396;28;20464;-75
2022/11/08 10:59:40;;;;;;;17.77;15.87;;;15.30;99.90;;;;;;4971835;28;20494;-75
2022/11/08 11:02:32;;;;;;;15.03;13.53;;;15.30;99.90;;;;;;4971483;28;20447;-75
2022/11/08 11:05:21;;;;;;;14.57;13.60;;;15.40;99.90;;;;;;4953053;28;20950;-75
2022/11/08 11:07:59;;;;;;;14.30;13.40;;;15.40;99.90;;;;;;4960886;28;21009;-74
2022/11/08 11:10:28;;;;;;;14.60;13.60;;;15.50;99.90;;;;;;4971249;28;20444;-74
2022/11/08 11:13:01;;;;;;;15.10;14.00;;;15.80;99.90;;;;;;4971430;28;20470;-75
2022/11/08 11:15:36;;;;;;;15.40;14.37;;;15.90;99.90;;;;;;4971298;28;20455;-75
2022/11/08 11:18:03;;;;;;;15.57;14.40;;;15.90;99.90;;;;;;4971894;28;20921;-75
2022/11/08 11:20:30;;;;;;;16.77;15.47;;;15.90;99.90;;;;;;4972959;28;20497;-75
2022/11/08 11:22:59;;;;;;;17.00;15.40;;;15.80;99.90;;;;;;4971642;28;20451;-75
2022/11/08 11:25:26;;;;;;;18.73;17.33;;;15.90;99.90;;;;;;4971632;28;20454;-74
2022/11/08 11:27:56;;;;;;;16.90;15.60;;;16.00;99.90;;;;;;4970693;28;20451;-75
2022/11/08 11:30:29;;;;;;;19.13;17.60;;;15.90;99.90;;;;;;4970753;28;20448;-74
2022/11/08 11:33:02;;;;;;;18.63;17.20;;;15.80;99.90;;;;;;4970592;28;20973;-75
2022/11/08 11:35:44;;;;;;;19.30;17.97;;;15.90;99.90;;;;;;4970470;28;20480;-74
2022/11/08 11:38:27;;;;;;;17.80;16.27;;;15.70;99.90;;;;;;4970670;28;20444;-75
2022/11/08 11:40:59;;;;;;;17.47;15.90;;;15.70;99.90;;;;;;4970509;28;21009;-76
2022/11/08 11:43:31;;;;;;;16.33;15.13;;;15.60;99.90;;;;;;4970490;28;20452;-75
2022/11/08 11:46:08;;;;;;;15.37;14.47;;;15.70;99.90;;;;;;4969531;28;20470;-75
2022/11/08 11:48:42;;;;;;;15.90;14.47;;;15.70;99.90;;;;;;4970648;28;20451;-75
2022/11/08 11:51:10;;;;;;;14.57;13.50;;;15.70;99.90;;;;;;4970564;28;20444;-75
2022/11/08 11:53:37;;;;;;;17.03;15.27;;;16.00;99.90;;;;;;4970452;28;20448;-75
2022/11/08 11:56:39;;;;;;;15.50;14.60;;;17.10;99.90;;;;;;4970253;28;20447;-75
2022/11/08 11:59:43;;;;;;;15.50;14.50;;;17.90;99.90;;;;;;4969995;28;20491;-75
2022/11/08 12:02:40;;;;;;;15.00;14.00;;;18.30;99.90;;;;;;4970083;28;20447;-75
2022/11/08 12:05:29;;;;;;;13.83;13.03;;;18.90;99.90;;;;;;4970025;28;20945;-74
2022/11/08 12:08:15;;;;;;;14.20;13.50;;;18.40;99.90;;;;;;4970254;28;20440;-75
2022/11/08 12:11:04;;;;;;;14.83;13.63;;;18.30;99.90;;;;;;4970194;28;20941;-75
2022/11/08 12:13:42;;;;;;;13.40;12.70;;;18.30;99.70;;;;;;4969915;28;20949;-75
2022/11/08 12:16:17;;;;;;;13.83;12.83;;;18.60;98.80;;;;;;4969836;28;20443;-75
2022/11/08 12:19:09;;;;;;;13.27;12.53;;;18.60;98.60;;;;;;4970170;28;20805;-75
2022/11/08 12:21:45;;;;;;;15.17;13.83;;;18.70;99.20;;;;;;4971708;28;20488;-75
2022/11/08 12:24:45;;;;;;;15.93;14.63;;;19.40;97.70;;;;;;4970003;28;20462;-75
2022/11/08 12:27:20;;;;;;;18.80;17.43;;;19.80;96.90;;;;;;4969989;28;20444;-75
2022/11/08 12:29:57;;;;;;;17.87;16.47;;;19.40;97.10;;;;;;4969473;28;20447;-75
2022/11/08 12:32:45;;;;;;;14.93;14.03;;;19.50;97.10;;;;;;4969451;28;20957;-74
2022/11/08 12:35:24;;;;;;;14.53;13.60;;;19.70;96.40;;;;;;4969510;28;21135;-74
2022/11/08 12:38:02;;;;;;;15.17;14.13;;;20.00;95.50;;;;;;4969502;28;20466;-76
2022/11/08 12:40:37;;;;;;;15.23;13.90;;;20.00;95.00;;;;;;4969784;28;20518;-74
2022/11/08 12:43:22;;;;;;;14.07;13.17;;;20.10;94.30;;;;;;4969324;28;20454;-74
2022/11/08 12:46:01;;;;;;;13.93;12.90;;;20.30;93.40;;;;;;4969263;28;21024;-75
2022/11/08 12:48:42;;;;;;;13.30;12.50;;;20.00;93.10;;;;;;4969626;28;20845;-74
2022/11/08 12:51:18;;;;;;;13.10;12.50;;;19.50;94.00;;;;;;4969628;28;20451;-75
2022/11/08 12:54:17;;;;;;;13.10;12.50;;;19.00;94.60;;;;;;4969650;28;20451;-75
2022/11/08 12:56:47;;;;;;;12.53;11.97;;;19.00;95.20;;;;;;4970211;28;20448;-75
2022/11/08 12:59:20;;;;;;;12.87;12.07;;;18.90;94.20;;;;;;4973788;28;21024;-75
2022/11/08 13:01:47;;;;;;;13.87;12.90;;;18.90;94.40;;;;;;4973025;28;21009;-75
2022/11/08 13:04:30;;;;;;;13.90;13.00;;;19.00;94.90;;;;;;4973280;28;20945;-75
2022/11/08 13:07:02;;;;;;;13.20;12.50;;;18.90;95.20;;;;;;4973400;28;20451;-76
2022/11/08 13:09:40;;;;;;;11.63;11.00;;;18.90;95.00;;;;;;4973168;28;20994;-76
2022/11/08 13:12:19;;;;;;;12.83;12.23;;;18.80;94.80;;;;;;4973036;28;20448;-75
2022/11/08 13:14:46;;;;;;;12.83;11.93;;;18.70;95.00;;;;;;4973008;28;20447;-75
2022/11/08 13:17:16;;;;;;;15.30;14.43;;;18.70;95.60;;;;;;4973128;28;20458;-75
2022/11/08 13:19:55;;;;;;;17.50;16.00;;;18.50;96.60;;;;;;4973400;28;20447;-75
2022/11/08 13:22:56;;;;;;;16.30;15.30;;;18.40;97.90;;;;;;4973272;28;20824;-76
2022/11/08 13:25:35;;;;;;;13.57;12.80;;;18.20;98.80;;;;;;4973164;28;20462;-76
2022/11/08 13:28:22;;;;;;;13.90;13.03;;;18.10;98.90;;;;;;4973023;28;20459;-76
2022/11/08 13:30:54;;;;;;;13.70;12.70;;;18.00;98.90;;;;;;4972635;28;20450;-75
2022/11/08 13:33:28;;;;;;;14.13;13.07;;;17.90;99.10;;;;;;4972728;28;20467;-76
2022/11/08 13:36:09;;;;;;;14.83;13.77;;;17.90;99.70;;;;;;4972897;28;20481;-76
2022/11/08 13:38:48;;;;;;;16.97;15.37;;;17.70;99.90;;;;;;4972742;28;20452;-76
2022/11/08 13:41:18;;;;;;;15.93;14.33;;;17.60;99.90;;;;;;4972817;28;20483;-74
2022/11/08 13:43:45;;;;;;;15.83;14.67;;;17.50;99.90;;;;;;4972623;28;20925;-75
2022/11/08 13:46:47;;;;;;;15.00;14.00;;;17.30;99.90;;;;;;4972687;28;20960;-75
2022/11/08 13:49:17;;;;;;;14.97;13.90;;;17.20;99.90;;;;;;4972652;28;20940;-74
2022/11/08 13:51:45;;;;;;;15.03;14.03;;;17.10;99.90;;;;;;4972701;28;20447;-75
2022/11/08 13:54:48;;;;;;;15.30;14.20;;;17.20;99.90;;;;;;4972682;28;20455;-75
2022/11/08 13:57:57;;;;;;;17.97;16.23;;;17.10;99.90;;;;;;4972557;28;20455;-75
2022/11/08 14:00:44;;;;;;;15.80;14.60;;;17.20;99.90;;;;;;4972806;28;20490;-75
2022/11/08 14:03:48;;;;;;;18.77;17.17;;;17.40;99.90;;;;;;4972764;28;20455;-75
2022/11/08 14:06:19;;;;;;;17.90;16.50;;;17.30;99.90;;;;;;4972247;28;20458;-75
2022/11/08 14:08:54;;;;;;;16.97;15.57;;;17.20;99.90;;;;;;4971080;28;20975;-74
2022/11/08 14:11:35;;;;;;;21.43;19.13;;;17.10;99.90;;;;;;4972469;28;20439;-76
2022/11/08 14:14:29;;;;;;;17.13;15.83;;;17.00;99.90;;;;;;4972346;28;20447;-76
2022/11/08 14:17:29;;;;;;;18.00;17.00;;;17.00;99.90;;;;;;4972477;28;21014;-76
2022/11/08 14:20:06;;;;;;;16.30;15.13;;;16.90;99.90;;;;;;4893651;29;20455;-76
2022/11/08 14:22:34;;;;;;;16.03;14.73;;;16.90;99.90;;;;;;4960979;28;20444;-76
2022/11/08 14:25:18;;;;;;;15.47;14.37;;;16.90;99.90;;;;;;4972782;28;20447;-76
2022/11/08 14:27:45;;;;;;;16.67;15.07;;;16.90;99.90;;;;;;4971999;28;20451;-74
2022/11/08 14:30:17;;;;;;;14.50;13.60;;;16.80;99.90;;;;;;4972245;28;20443;-75
2022/11/08 14:32:44;;;;;;;15.57;14.13;;;16.90;99.90;;;;;;4971956;28;20531;-74
2022/11/08 14:35:20;;;;;;;15.17;14.27;;;16.80;99.90;;;;;;4971918;28;20798;-75
2022/11/08 14:37:47;;;;;;;15.63;14.17;;;16.80;99.90;;;;;;4971726;28;20447;-74
2022/11/08 14:40:19;;;;;;;15.27;14.07;;;16.80;99.90;;;;;;4971945;28;20443;-75
2022/11/08 14:42:46;;;;;;;15.10;14.00;;;16.80;99.90;;;;;;4971868;28;20567;-74
2022/11/08 14:45:16;;;;;;;15.77;14.23;;;16.70;99.90;;;;;;4972139;28;20459;-74
2022/11/08 14:47:44;;;;;;;15.40;14.10;;;16.60;99.90;;;;;;4971829;28;20448;-76
2022/11/08 14:50:18;;;;;;;15.10;13.97;;;16.60;99.90;;;;;;4972103;28;20452;-76
2022/11/08 14:52:45;;;;;;;14.80;13.80;;;16.50;99.90;;;;;;4971842;28;20451;-76
2022/11/08 14:55:14;;;;;;;15.33;13.77;;;16.50;99.90;;;;;;4972226;28;20458;-76
2022/11/08 14:57:42;;;;;;;16.60;15.27;;;16.40;99.90;;;;;;4970256;28;20832;-76
2022/11/08 15:00:17;;;;;;;18.57;16.70;;;16.40;99.90;;;;;;4971205;28;20455;-76
2022/11/08 15:02:48;;;;;;;17.80;16.13;;;16.30;99.90;;;;;;4971313;28;20948;-75
2022/11/08 15:05:32;;;;;;;16.57;15.00;;;16.30;99.90;;;;;;4970699;28;20930;-74
2022/11/08 15:08:00;;;;;;;22.23;14.80;;;16.30;99.90;;;;;;4971244;28;20447;-75
2022/11/08 15:10:28;;;;;;;15.67;14.40;;;16.30;99.90;;;;;;4971285;28;20549;-75
2022/11/08 15:12:55;;;;;;;16.23;14.53;;;16.20;99.90;;;;;;4970800;28;20780;-75
2022/11/08 15:15:26;;;;;;;17.97;16.30;;;16.10;99.90;;;;;;4969250;28;20464;-75
2022/11/08 15:18:13;;;;;;;16.80;14.73;;;16.10;99.90;;;;;;4957917;28;20455;-74
2022/11/08 15:20:52;;;;;;;18.20;16.90;;;16.00;99.90;;;;;;4969953;28;20439;-74
2022/11/08 15:23:44;;;;;;;20.63;18.57;;;15.90;99.90;;;;;;4968759;28;21225;-74
2022/11/08 15:26:21;;;;;;;19.33;17.63;;;15.80;99.90;;;;;;4951984;28;20464;-74
2022/11/08 15:28:59;;;;;;;17.77;16.37;;;15.70;99.90;;;;;;4970762;28;20454;-74
2022/11/08 15:31:31;;;;;;;17.90;16.70;;;15.70;99.90;;;;;;4970432;28;20439;-74
2022/11/08 15:33:58;;;;;;;16.70;15.40;;;15.60;99.90;;;;;;4968619;28;20472;-76
2022/11/08 15:36:31;;;;;;;16.00;14.87;;;15.50;99.90;;;;;;4970043;28;20727;-74